createdAt,value
2022-10-28T00:00:50.347Z,10.70
2022-10-28T00:03:19.809Z,10.69
2022-10-28T00:05:47.732Z,10.71
2022-10-28T00:08:15.349Z,10.69
2022-10-28T00:10:43.046Z,10.69
2022-10-28T00:13:13.159Z,10.62
2022-10-28T00:15:40.813Z,10.59
2022-10-28T00:18:08.845Z,10.58
2022-10-28T00:20:37.887Z,10.55
2022-10-28T00:23:05.549Z,10.51
2022-10-28T00:25:33.249Z,10.48
2022-10-28T00:28:00.908Z,10.46
2022-10-28T00:30:28.581Z,10.43
2022-10-28T00:32:56.431Z,10.44
2022-10-28T00:35:24.587Z,10.45
2022-10-28T00:37:55.252Z,10.43
2022-10-28T00:40:23.167Z,10.41
2022-10-28T00:42:51.778Z,10.38
2022-10-28T00:45:19.825Z,10.37
2022-10-28T00:47:52.549Z,10.37
2022-10-28T00:50:30.371Z,10.35
2022-10-28T00:53:01.945Z,10.32
2022-10-28T00:55:30.179Z,10.31
2022-10-28T00:57:58.741Z,10.31
2022-10-28T01:00:27.097Z,10.32
2022-10-28T01:02:54.938Z,10.28
2022-10-28T01:05:23.934Z,10.28
2022-10-28T01:07:53.076Z,10.28
2022-10-28T01:10:24.488Z,10.30
2022-10-28T01:12:59.913Z,10.31
2022-10-28T01:15:35.102Z,10.30
2022-10-28T01:18:10.286Z,10.29
2022-10-28T01:21:07.495Z,10.31
2022-10-28T01:23:39.264Z,10.30
2022-10-28T01:26:30.977Z,10.28
2022-10-28T01:29:20.873Z,10.25
2022-10-28T01:31:51.667Z,10.24
2022-10-28T01:34:25.485Z,10.20
2022-10-28T01:36:59.187Z,10.16
2022-10-28T01:39:32.315Z,10.15
2022-10-28T01:42:15.495Z,10.14
2022-10-28T01:44:49.353Z,10.10
2022-10-28T01:47:21.693Z,10.10
2022-10-28T01:49:53.566Z,10.11
2022-10-28T01:52:23.551Z,10.12
2022-10-28T01:54:53.777Z,10.10
2022-10-28T01:57:23.731Z,10.09
2022-10-28T01:59:51.510Z,10.10
2022-10-28T02:02:20.588Z,10.10
2022-10-28T02:04:48.219Z,10.07
2022-10-28T02:07:16.202Z,10.05
2022-10-28T02:09:57.069Z,10.03
2022-10-28T02:12:29.125Z,9.99
2022-10-28T02:15:12.184Z,9.94
2022-10-28T02:17:50.050Z,9.92
2022-10-28T02:20:22.565Z,9.93
2022-10-28T02:22:52.756Z,9.94
2022-10-28T02:25:22.481Z,9.95
2022-10-28T02:27:55.146Z,9.94
2022-10-28T02:30:25.494Z,9.93
2022-10-28T02:32:58.298Z,9.92
2022-10-28T02:35:29.349Z,9.87
2022-10-28T02:37:57.946Z,9.87
2022-10-28T02:40:27.579Z,9.83
2022-10-28T02:42:57.471Z,9.82
2022-10-28T02:45:28.354Z,9.83
2022-10-28T02:47:59.768Z,9.85
2022-10-28T02:50:32.686Z,9.88
2022-10-28T02:53:01.634Z,9.89
2022-10-28T02:55:33.974Z,9.90
2022-10-28T02:58:01.666Z,9.92
2022-10-28T03:00:29.345Z,9.91
2022-10-28T03:02:58.429Z,9.92
2022-10-28T03:05:26.064Z,9.91
2022-10-28T03:07:54.058Z,9.89
2022-10-28T03:10:22.005Z,9.87
2022-10-28T03:12:49.654Z,9.88
2022-10-28T03:15:17.349Z,9.87
2022-10-28T03:17:44.992Z,9.88
2022-10-28T03:20:14.443Z,9.87
2022-10-28T03:22:44.053Z,9.79
2022-10-28T03:25:11.809Z,9.70
2022-10-28T03:27:41.112Z,9.57
2022-10-28T03:30:09.669Z,9.51
2022-10-28T03:32:37.270Z,9.49
2022-10-28T03:35:05.913Z,9.48
2022-10-28T03:37:34.899Z,9.49
2022-10-28T03:40:02.983Z,9.49
2022-10-28T03:42:30.643Z,9.50
2022-10-28T03:44:58.286Z,9.53
2022-10-28T03:47:25.907Z,9.56
2022-10-28T03:49:53.576Z,9.57
2022-10-28T03:52:21.217Z,9.58
2022-10-28T03:54:50.295Z,9.55
2022-10-28T03:57:17.920Z,9.54
2022-10-28T03:59:45.653Z,9.51
2022-10-28T04:02:15.585Z,9.50
2022-10-28T04:04:43.407Z,9.50
2022-10-28T04:07:11.054Z,9.48
2022-10-28T04:09:38.773Z,9.44
2022-10-28T04:12:08.496Z,9.39
2022-10-28T04:14:36.117Z,9.32
2022-10-28T04:17:03.766Z,9.24
2022-10-28T04:19:31.378Z,9.22
2022-10-28T04:21:58.993Z,9.18
2022-10-28T04:24:26.580Z,9.18
2022-10-28T04:26:54.376Z,9.17
2022-10-28T04:29:23.432Z,9.17
2022-10-28T04:31:52.287Z,9.22
2022-10-28T04:34:20.215Z,9.25
2022-10-28T04:36:47.853Z,9.25
2022-10-28T04:39:15.620Z,9.25
2022-10-28T04:41:43.295Z,9.26
2022-10-28T04:44:10.973Z,9.28
2022-10-28T04:46:40.054Z,9.32
2022-10-28T04:49:07.754Z,9.34
2022-10-28T04:51:35.472Z,9.35
2022-10-28T04:54:03.430Z,9.36
2022-10-28T04:56:33.230Z,9.38
2022-10-28T04:59:01.113Z,9.38
2022-10-28T05:01:28.864Z,9.38
2022-10-28T05:03:58.214Z,9.39
2022-10-28T05:06:25.924Z,9.40
2022-10-28T05:08:53.605Z,9.40
2022-10-28T05:11:21.380Z,9.39
2022-10-28T05:13:49.103Z,9.41
2022-10-28T05:16:16.967Z,9.40
2022-10-28T05:21:13.784Z,9.41
2022-10-28T05:23:41.419Z,9.39
2022-10-28T05:26:09.132Z,9.35
2022-10-28T05:28:36.789Z,9.34
2022-10-28T05:31:04.676Z,9.34
2022-10-28T05:33:33.535Z,9.34
2022-10-28T05:36:01.570Z,9.32
2022-10-28T05:38:30.720Z,9.30
2022-10-28T05:40:58.431Z,9.30
2022-10-28T05:43:26.138Z,9.28
2022-10-28T05:45:54.196Z,9.26
2022-10-28T05:48:21.935Z,9.24
2022-10-28T05:50:50.265Z,9.22
2022-10-28T05:53:18.176Z,9.16
2022-10-28T05:55:47.949Z,9.17
2022-10-28T05:58:16.516Z,9.18
2022-10-28T06:00:44.174Z,9.17
2022-10-28T06:03:12.760Z,9.19
2022-10-28T06:05:42.661Z,9.21
2022-10-28T06:08:12.007Z,9.21
2022-10-28T06:10:39.732Z,9.22
2022-10-28T06:13:08.096Z,9.22
2022-10-28T06:15:35.814Z,9.24
2022-10-28T06:18:03.676Z,9.26
2022-10-28T06:20:31.631Z,9.28
2022-10-28T06:22:59.434Z,9.31
2022-10-28T06:25:27.101Z,9.34
2022-10-28T06:27:55.811Z,9.40
2022-10-28T06:30:26.435Z,9.44
2022-10-28T06:32:56.362Z,9.46
2022-10-28T06:35:24.183Z,9.48
2022-10-28T06:37:54.603Z,9.48
2022-10-28T06:40:22.804Z,9.50
2022-10-28T06:42:57.013Z,9.52
2022-10-28T06:45:26.354Z,9.61
2022-10-28T06:47:59.122Z,9.71
2022-10-28T06:50:27.350Z,9.82
2022-10-28T06:52:57.059Z,9.90
2022-10-28T06:55:25.148Z,10.01
2022-10-28T06:57:53.196Z,10.12
2022-10-28T07:00:21.690Z,10.22
2022-10-28T07:02:53.963Z,10.30
2022-10-28T07:05:22.270Z,10.38
2022-10-28T07:07:50.078Z,10.46
2022-10-28T07:10:17.837Z,10.54
2022-10-28T07:12:45.537Z,10.62
2022-10-28T07:15:13.221Z,10.72
2022-10-28T07:17:40.891Z,10.81
2022-10-28T07:20:11.828Z,10.90
2022-10-28T07:22:39.577Z,11.03
2022-10-28T07:25:08.447Z,11.17
2022-10-28T07:27:36.097Z,11.30
2022-10-28T07:30:03.807Z,11.44
2022-10-28T07:32:33.189Z,11.59
2022-10-28T07:35:01.077Z,11.75
2022-10-28T07:37:30.197Z,11.92
2022-10-28T07:39:57.972Z,12.09
2022-10-28T07:42:25.884Z,12.29
2022-10-28T07:44:53.597Z,12.49
2022-10-28T07:47:22.296Z,12.68
2022-10-28T07:49:50.012Z,12.87
2022-10-28T07:52:18.017Z,13.05
2022-10-28T07:54:47.118Z,13.17
2022-10-28T07:57:14.831Z,13.28
2022-10-28T07:59:42.528Z,13.39
2022-10-28T08:02:11.682Z,13.48
2022-10-28T08:04:39.380Z,13.61
2022-10-28T08:07:07.129Z,13.71
2022-10-28T08:09:34.809Z,13.76
2022-10-28T08:12:04.298Z,13.76
2022-10-28T08:14:32.022Z,13.79
2022-10-28T08:16:59.932Z,13.83
2022-10-28T08:19:27.935Z,13.91
2022-10-28T08:21:55.735Z,13.93
2022-10-28T08:24:23.549Z,13.98
2022-10-28T08:26:51.373Z,14.04
2022-10-28T08:29:20.679Z,14.07
2022-10-28T08:31:48.402Z,14.12
2022-10-28T08:34:16.237Z,14.16
2022-10-28T08:36:44.134Z,14.20
2022-10-28T08:39:12.018Z,14.30
2022-10-28T08:41:41.410Z,14.40
2022-10-28T08:44:31.985Z,14.46
2022-10-28T08:47:10.379Z,14.57
2022-10-28T08:49:43.427Z,14.69
2022-10-28T08:52:23.026Z,14.80
2022-10-28T08:54:53.668Z,14.92
2022-10-28T08:57:23.458Z,15.02
2022-10-28T08:59:54.137Z,15.07
2022-10-28T09:02:23.377Z,15.13
2022-10-28T09:04:54.851Z,15.22
2022-10-28T09:07:23.484Z,15.28
2022-10-28T09:09:52.292Z,15.38
2022-10-28T09:12:29.262Z,15.51
2022-10-28T09:15:08.425Z,15.65
2022-10-28T09:17:43.521Z,15.85
2022-10-28T09:20:18.814Z,15.98
2022-10-28T09:22:51.779Z,16.04
2022-10-28T09:25:25.125Z,16.10
2022-10-28T09:28:21.339Z,16.11
2022-10-28T09:30:58.324Z,16.16
2022-10-28T09:33:52.625Z,16.37
2022-10-28T09:36:23.799Z,16.51
2022-10-28T09:38:53.865Z,16.58
2022-10-28T09:41:23.979Z,16.81
2022-10-28T09:43:54.673Z,17.04
2022-10-28T09:46:25.651Z,17.20
2022-10-28T09:48:56.170Z,17.31
2022-10-28T09:51:29.698Z,17.46
2022-10-28T09:53:59.017Z,17.63
2022-10-28T09:56:28.349Z,17.84
2022-10-28T09:58:58.669Z,18.10
2022-10-28T10:01:30.318Z,18.39
2022-10-28T10:03:58.218Z,18.64
2022-10-28T10:06:29.076Z,18.71
2022-10-28T10:08:57.378Z,18.91
2022-10-28T10:11:29.957Z,19.06
2022-10-28T10:13:59.495Z,19.17
2022-10-28T10:16:35.833Z,19.28
2022-10-28T10:19:04.736Z,19.38
2022-10-28T10:21:43.559Z,19.37
2022-10-28T10:24:24.081Z,19.52
2022-10-28T10:26:52.463Z,19.53
2022-10-28T10:29:20.584Z,19.67
2022-10-28T10:31:50.160Z,19.86
2022-10-28T10:34:23.918Z,20.06
2022-10-28T10:36:53.632Z,20.27
2022-10-28T10:39:26.328Z,20.41
2022-10-28T10:41:55.993Z,20.58
2022-10-28T10:44:33.611Z,20.78
2022-10-28T10:47:24.586Z,20.95
2022-10-28T10:49:52.338Z,21.04
2022-10-28T10:52:26.111Z,21.24
2022-10-28T10:55:03.785Z,21.49
2022-10-28T10:57:32.190Z,21.73
2022-10-28T11:00:00.284Z,21.92
2022-10-28T11:02:34.894Z,22.20
2022-10-28T11:05:05.288Z,22.49
2022-10-28T11:07:33.705Z,22.79
2022-10-28T11:10:02.126Z,22.92
2022-10-28T11:12:32.177Z,23.03
2022-10-28T11:15:01.382Z,23.17
2022-10-28T11:20:01.832Z,23.03
2022-10-28T11:22:46.283Z,23.01
2022-10-28T11:25:36.720Z,22.96
2022-10-28T11:28:29.703Z,22.95
2022-10-28T11:31:05.080Z,22.83
2022-10-28T11:33:41.250Z,22.80
2022-10-28T11:36:17.621Z,22.69
2022-10-28T11:38:56.234Z,22.80
2022-10-28T11:41:31.399Z,22.90
2022-10-28T11:44:04.976Z,22.80
2022-10-28T11:46:46.661Z,22.95
2022-10-28T11:49:38.645Z,23.09
2022-10-28T11:52:16.133Z,23.18
2022-10-28T11:54:55.165Z,23.26
2022-10-28T11:57:27.366Z,23.42
2022-10-28T12:00:08.510Z,23.52
2022-10-28T12:02:53.566Z,23.59
2022-10-28T12:05:25.714Z,23.60
2022-10-28T12:08:05.853Z,23.48
2022-10-28T12:10:42.341Z,23.37
2022-10-28T12:13:18.259Z,23.38
2022-10-28T12:15:52.038Z,23.39
2022-10-28T12:18:24.394Z,23.41
2022-10-28T12:20:59.031Z,23.43
2022-10-28T12:23:27.606Z,23.43
2022-10-28T12:25:58.109Z,23.45
2022-10-28T12:28:29.293Z,23.47
2022-10-28T12:30:58.397Z,23.45
2022-10-28T12:33:29.116Z,23.25
2022-10-28T12:36:19.549Z,23.25
2022-10-28T12:38:53.526Z,23.32
2022-10-28T12:41:24.373Z,23.39
2022-10-28T12:43:54.410Z,23.43
2022-10-28T12:46:27.488Z,23.47
2022-10-28T12:48:59.069Z,23.49
2022-10-28T12:51:31.115Z,23.53
2022-10-28T12:54:02.145Z,23.57
2022-10-28T12:56:33.176Z,23.58
2022-10-28T12:59:05.829Z,23.58
2022-10-28T13:01:34.873Z,23.58
2022-10-28T13:07:35.968Z,23.48
2022-10-28T13:10:13.601Z,23.49
2022-10-28T13:13:24.090Z,23.47
2022-10-28T13:16:16.848Z,23.44
2022-10-28T13:19:09.195Z,23.43
2022-10-28T13:22:02.029Z,23.36
2022-10-28T13:24:40.372Z,23.44
2022-10-28T13:27:13.169Z,23.35
2022-10-28T13:29:44.483Z,23.45
2022-10-28T13:32:37.501Z,23.54
2022-10-28T13:35:20.159Z,23.64
2022-10-28T13:37:51.516Z,23.72
2022-10-28T13:40:43.579Z,23.79
2022-10-28T13:43:22.319Z,23.85
2022-10-28T13:45:53.289Z,23.87
2022-10-28T13:48:46.342Z,23.89
2022-10-28T13:51:36.500Z,23.89
2022-10-28T13:54:25.966Z,23.89
2022-10-28T13:56:57.976Z,23.91
2022-10-28T13:59:29.642Z,23.91
2022-10-28T14:02:32.437Z,23.91
2022-10-28T14:04:55.722Z,23.77
2022-10-28T14:07:27.832Z,23.74
2022-10-28T14:09:59.435Z,23.70
2022-10-28T14:12:30.973Z,23.70
2022-10-28T14:15:05.796Z,23.67
2022-10-28T14:17:44.068Z,23.68
2022-10-28T14:20:30.007Z,23.71
2022-10-28T14:22:57.989Z,23.65
2022-10-28T14:26:00.627Z,23.66
2022-10-28T14:28:57.262Z,23.65
2022-10-28T14:31:39.096Z,23.61
2022-10-28T14:34:38.909Z,23.62
2022-10-28T14:37:28.613Z,23.59
2022-10-28T14:40:09.639Z,23.57
2022-10-28T14:42:53.221Z,23.57
2022-10-28T14:45:33.981Z,23.40
2022-10-28T14:48:31.928Z,23.33
2022-10-28T14:51:01.363Z,23.36
2022-10-28T14:53:31.294Z,23.38
2022-10-28T14:56:01.305Z,23.36
2022-10-28T14:58:31.497Z,23.09
2022-10-28T15:01:21.863Z,22.88
2022-10-28T15:03:52.115Z,22.77
2022-10-28T15:06:28.262Z,22.60
2022-10-28T15:08:56.549Z,22.39
2022-10-28T15:11:24.389Z,22.20
2022-10-28T15:13:53.800Z,22.01
2022-10-28T15:16:24.390Z,21.94
2022-10-28T15:18:55.207Z,21.80
2022-10-28T15:21:23.945Z,21.67
2022-10-28T15:24:01.744Z,21.51
2022-10-28T15:26:29.595Z,21.38
2022-10-28T15:28:57.288Z,21.29
2022-10-28T15:31:26.597Z,21.22
2022-10-28T15:33:54.292Z,21.13
2022-10-28T15:36:23.920Z,21.05
2022-10-28T15:38:52.137Z,20.94
2022-10-28T15:41:49.287Z,20.76
2022-10-28T15:44:32.647Z,20.64
2022-10-28T15:47:06.140Z,20.55
2022-10-28T15:49:38.593Z,20.44
2022-10-28T15:52:23.997Z,20.38
2022-10-28T15:54:58.254Z,20.24
2022-10-28T15:57:27.688Z,20.17
2022-10-28T16:00:19.694Z,20.07
2022-10-28T16:02:56.690Z,20.02
2022-10-28T16:05:55.923Z,19.77
2022-10-28T16:08:25.787Z,19.69
2022-10-28T16:10:56.359Z,19.57
2022-10-28T16:13:30.676Z,19.48
2022-10-28T16:16:01.219Z,19.40
2022-10-28T16:18:31.225Z,19.35
2022-10-28T16:21:00.116Z,19.19
2022-10-28T16:23:33.886Z,19.14
2022-10-28T16:26:01.584Z,19.04
2022-10-28T16:28:30.427Z,18.99
2022-10-28T16:30:59.584Z,18.91
2022-10-28T16:33:32.451Z,18.87
2022-10-28T16:36:00.689Z,18.86
2022-10-28T16:38:28.359Z,18.76
2022-10-28T16:40:56.183Z,18.64
2022-10-28T16:43:25.060Z,18.49
2022-10-28T16:45:53.520Z,18.40
2022-10-28T16:48:22.506Z,18.32
2022-10-28T16:50:52.965Z,18.14
2022-10-28T16:53:21.017Z,18.11
2022-10-28T16:55:49.175Z,18.03
2022-10-28T16:58:17.232Z,17.89
2022-10-28T17:00:46.951Z,17.76
2022-10-28T17:03:15.776Z,17.76
2022-10-28T17:05:44.020Z,17.74
2022-10-28T17:08:13.263Z,17.70
2022-10-28T17:10:41.825Z,17.64
2022-10-28T17:13:12.063Z,17.62
2022-10-28T17:15:39.844Z,17.56
2022-10-28T17:18:07.710Z,17.51
2022-10-28T17:20:35.356Z,17.42
2022-10-28T17:23:03.111Z,17.39
2022-10-28T17:25:32.588Z,17.35
2022-10-28T17:28:00.386Z,17.28
2022-10-28T17:30:28.227Z,17.25
2022-10-28T17:32:55.999Z,17.21
2022-10-28T17:35:23.771Z,17.12
2022-10-28T17:37:51.634Z,17.07
2022-10-28T17:40:19.614Z,17.04
2022-10-28T17:42:48.779Z,17.00
2022-10-28T17:45:19.556Z,17.00
2022-10-28T17:47:49.764Z,16.84
2022-10-28T17:50:17.947Z,16.80
2022-10-28T17:52:45.640Z,16.74
2022-10-28T17:55:13.589Z,16.74
2022-10-28T17:57:41.373Z,16.67
2022-10-28T18:00:12.197Z,16.61
2022-10-28T18:02:40.513Z,16.60
2022-10-28T18:05:09.144Z,16.58
2022-10-28T18:07:36.904Z,16.51
2022-10-28T18:10:05.195Z,16.49
2022-10-28T18:12:32.924Z,16.49
2022-10-28T18:15:00.645Z,16.46
2022-10-28T18:17:29.723Z,16.35
2022-10-28T18:19:57.750Z,16.30
2022-10-28T18:24:54.054Z,16.21
2022-10-28T18:27:21.747Z,16.22
2022-10-28T18:29:49.358Z,16.17
2022-10-28T18:32:17.523Z,16.08
2022-10-28T18:34:46.614Z,16.04
2022-10-28T18:37:14.386Z,16.01
2022-10-28T18:39:42.028Z,16.00
2022-10-28T18:42:12.282Z,15.90
2022-10-28T18:44:41.451Z,15.92
2022-10-28T18:47:09.193Z,15.94
2022-10-28T18:49:36.863Z,15.91
2022-10-28T18:52:06.081Z,15.96
2022-10-28T18:54:34.457Z,15.95
2022-10-28T18:57:02.130Z,15.95
2022-10-28T18:59:29.776Z,15.93
2022-10-28T19:01:57.688Z,15.87
2022-10-28T19:04:25.576Z,15.88
2022-10-28T19:06:53.227Z,15.85
2022-10-28T19:09:22.276Z,15.84
2022-10-28T19:11:50.011Z,15.83
2022-10-28T19:14:17.896Z,15.82
2022-10-28T19:16:45.576Z,15.79
2022-10-28T19:19:13.306Z,15.78
2022-10-28T19:21:40.989Z,15.75
2022-10-28T19:24:09.304Z,15.73
2022-10-28T19:26:39.414Z,15.73
2022-10-28T19:29:07.186Z,15.70
2022-10-28T19:31:36.838Z,15.67
2022-10-28T19:34:04.512Z,15.65
2022-10-28T19:36:32.154Z,15.63
2022-10-28T19:38:59.912Z,15.62
2022-10-28T19:41:29.096Z,15.61
2022-10-28T19:43:59.445Z,15.56
2022-10-28T19:46:27.903Z,15.52
2022-10-28T19:48:57.313Z,15.48
2022-10-28T19:51:27.292Z,15.48
2022-10-28T19:53:56.815Z,15.42
2022-10-28T19:56:24.811Z,15.26
2022-10-28T19:58:54.610Z,15.27
2022-10-28T20:01:24.993Z,15.29
2022-10-28T20:03:53.762Z,15.30
2022-10-28T20:06:23.276Z,15.31
2022-10-28T20:08:51.194Z,15.32
2022-10-28T20:11:24.877Z,15.31
2022-10-28T20:13:54.781Z,15.33
2022-10-28T20:16:24.657Z,15.29
2022-10-28T20:18:52.287Z,15.23
2022-10-28T20:21:21.323Z,15.24
2022-10-28T20:26:18.868Z,15.24
2022-10-28T20:28:46.918Z,15.22
2022-10-28T20:31:15.787Z,15.22
2022-10-28T20:33:45.683Z,15.22
2022-10-28T20:36:23.264Z,15.19
2022-10-28T20:38:54.253Z,15.17
2022-10-28T20:41:22.483Z,15.15
2022-10-28T20:43:51.326Z,15.16
2022-10-28T20:46:20.284Z,15.14
2022-10-28T20:48:50.124Z,15.10
2022-10-28T20:51:18.030Z,15.06
2022-10-28T20:53:45.735Z,15.06
2022-10-28T20:56:16.890Z,15.08
2022-10-28T20:58:44.636Z,15.09
2022-10-28T21:01:14.674Z,15.04
2022-10-28T21:03:42.573Z,14.99
2022-10-28T21:08:45.115Z,14.88
2022-10-28T21:11:14.725Z,14.85
2022-10-28T21:13:42.972Z,14.83
2022-10-28T21:16:12.766Z,14.75
2022-10-28T21:18:41.259Z,14.67
2022-10-28T21:21:08.975Z,14.64
2022-10-28T21:23:38.063Z,14.65
2022-10-28T21:26:07.209Z,14.64
2022-10-28T21:28:35.792Z,14.60
2022-10-28T21:31:04.954Z,14.59
2022-10-28T21:33:32.707Z,14.59
2022-10-28T21:36:01.899Z,14.57
2022-10-28T21:38:30.342Z,14.54
2022-10-28T21:41:03.208Z,14.54
2022-10-28T21:43:31.944Z,14.57
2022-10-28T21:45:59.862Z,14.56
2022-10-28T21:48:27.773Z,14.54
2022-10-28T21:50:56.790Z,14.50
2022-10-28T21:53:25.016Z,14.46
2022-10-28T21:55:54.867Z,14.45
2022-10-28T21:58:24.586Z,14.39
2022-10-28T22:00:52.241Z,14.36
2022-10-28T22:03:19.973Z,14.34
2022-10-28T22:05:51.558Z,14.30
2022-10-28T22:08:19.228Z,14.23
2022-10-28T22:10:46.902Z,14.18
2022-10-28T22:13:14.543Z,14.17
2022-10-28T22:15:43.653Z,14.09
2022-10-28T22:18:11.266Z,14.07
2022-10-28T22:20:39.065Z,14.04
2022-10-28T22:23:06.804Z,14.04
2022-10-28T22:25:34.584Z,14.04
2022-10-28T22:28:02.264Z,13.95
2022-10-28T22:30:29.963Z,13.80
2022-10-28T22:32:58.996Z,13.75
2022-10-28T22:35:26.631Z,13.73
2022-10-28T22:37:54.614Z,13.69
2022-10-28T22:40:22.484Z,13.68
2022-10-28T22:42:50.263Z,13.63
2022-10-28T22:45:18.220Z,13.55
2022-10-28T22:47:45.914Z,13.53
2022-10-28T22:50:14.947Z,13.43
2022-10-28T22:52:42.612Z,13.34
2022-10-28T22:55:11.032Z,13.27
2022-10-28T22:57:38.721Z,13.23
2022-10-28T23:00:07.534Z,13.18
2022-10-28T23:02:35.342Z,13.13
2022-10-28T23:05:03.112Z,13.12
2022-10-28T23:07:32.244Z,13.09
2022-10-28T23:10:00.533Z,13.06
2022-10-28T23:12:28.170Z,13.03
2022-10-28T23:14:55.872Z,13.04
2022-10-28T23:17:23.484Z,13.06
2022-10-28T23:19:51.087Z,13.06
2022-10-28T23:22:18.753Z,13.09
2022-10-28T23:24:47.784Z,13.06
2022-10-28T23:27:15.463Z,12.99
2022-10-28T23:29:43.240Z,12.94
2022-10-28T23:32:10.945Z,12.91
2022-10-28T23:34:38.633Z,12.91
2022-10-28T23:37:06.326Z,12.93
2022-10-28T23:39:33.955Z,12.88
2022-10-28T23:42:03.121Z,12.86
2022-10-28T23:44:30.767Z,12.84
2022-10-28T23:46:58.392Z,12.80
2022-10-28T23:49:26.021Z,12.75
2022-10-28T23:51:53.649Z,12.74
2022-10-28T23:54:21.321Z,12.72
2022-10-28T23:56:48.997Z,12.75
2022-10-28T23:59:18.035Z,12.72
